Time;durP1;ratioP1;P1;durP2;ratioP2;P2;SDS_P1;SDS_P2;PMS_P1;PMS_P2;Temp;Humidity;BMP_temperature;BMP_pressure;BME280_temperature;BME280_humidity;BME280_pressure;Samples;Min_cycle;Max_cycle;Signal;HPM_P1;HPM_P2
2022/11/10 00:01:45;;;;;;;;;;;22.10;44.40;;;;;;474777;251;1632;-47
2022/11/10 00:03:46;;;;;;;;;;;22.10;44.50;;;;;;474745;251;1244;-47
2022/11/10 00:05:48;;;;;;;;;;;22.10;44.40;;;;;;474559;251;1290;-46
2022/11/10 00:07:49;;;;;;;;;;;22.10;44.30;;;;;;474537;251;2134;-47
2022/11/10 00:09:51;;;;;;;;;;;22.10;44.40;;;;;;474649;251;1298;-47
2022/11/10 00:11:52;;;;;;;;;;;22.10;44.40;;;;;;474582;251;1278;-47
2022/11/10 00:18:32;;;;;;;;;;;22.10;44.50;;;;;;474608;251;1222;-47
2022/11/10 00:20:33;;;;;;;;;;;22.10;44.40;;;;;;475001;251;1374;-47
2022/11/10 00:22:35;;;;;;;;;;;22.10;44.40;;;;;;474628;251;1310;-47
2022/11/10 00:24:36;;;;;;;;;;;22.10;44.40;;;;;;474558;251;1250;-47
2022/11/10 00:26:37;;;;;;;;;;;22.10;44.40;;;;;;474880;251;2169;-47
2022/11/10 00:28:39;;;;;;;;;;;22.10;44.50;;;;;;474817;251;1324;-47
2022/11/10 00:30:40;;;;;;;;;;;22.10;44.50;;;;;;474843;251;1369;-47
2022/11/10 00:32:41;;;;;;;;;;;22.20;44.40;;;;;;474602;251;1268;-47
2022/11/10 00:34:43;;;;;;;;;;;22.20;44.40;;;;;;474653;251;1247;-47
2022/11/10 00:36:44;;;;;;;;;;;22.10;44.40;;;;;;474567;251;1271;-47
2022/11/10 00:38:45;;;;;;;;;;;22.10;44.50;;;;;;474530;251;1256;-47
2022/11/10 00:40:47;;;;;;;;;;;22.10;44.50;;;;;;474752;251;1383;-47
2022/11/10 00:42:48;;;;;;;;;;;22.10;44.50;;;;;;474983;251;1306;-47
2022/11/10 00:44:49;;;;;;;;;;;22.10;44.50;;;;;;474951;251;1328;-47
2022/11/10 00:46:51;;;;;;;;;;;22.10;44.50;;;;;;474710;251;2157;-47
2022/11/10 00:48:52;;;;;;;;;;;22.10;44.40;;;;;;474535;251;1271;-46
2022/11/10 00:50:53;;;;;;;;;;;22.10;44.50;;;;;;474547;251;1300;-47
2022/11/10 00:52:55;;;;;;;;;;;22.10;44.50;;;;;;474572;251;1453;-47
2022/11/10 00:54:56;;;;;;;;;;;22.10;44.40;;;;;;474659;251;1220;-47
2022/11/10 00:56:57;;;;;;;;;;;22.10;44.50;;;;;;474614;251;1388;-47
2022/11/10 00:58:59;;;;;;;;;;;22.10;44.50;;;;;;474757;251;1321;-47
2022/11/10 01:01:00;;;;;;;;;;;22.10;44.40;;;;;;474577;251;1283;-47
2022/11/10 01:03:02;;;;;;;;;;;22.10;44.50;;;;;;474654;251;1275;-47
2022/11/10 01:05:03;;;;;;;;;;;22.10;44.60;;;;;;474679;251;1444;-46
2022/11/10 01:07:04;;;;;;;;;;;22.10;44.60;;;;;;474297;251;2150;-47
2022/11/10 01:09:06;;;;;;;;;;;22.10;44.60;;;;;;474368;251;1614;-49
2022/11/10 01:11:07;;;;;;;;;;;22.10;44.50;;;;;;474363;251;1346;-46
2022/11/10 01:13:08;;;;;;;;;;;22.10;44.50;;;;;;474531;251;1255;-47
2022/11/10 01:15:10;;;;;;;;;;;22.10;44.50;;;;;;474519;251;1672;-47
2022/11/10 01:17:11;;;;;;;;;;;22.10;44.60;;;;;;474877;251;1262;-47
2022/11/10 01:19:12;;;;;;;;;;;22.10;44.50;;;;;;474551;251;1344;-46
2022/11/10 01:21:14;;;;;;;;;;;22.10;44.50;;;;;;474622;251;1163;-47
2022/11/10 01:23:15;;;;;;;;;;;22.10;44.60;;;;;;474819;251;1267;-47
2022/11/10 01:25:16;;;;;;;;;;;22.10;44.60;;;;;;474991;251;1495;-47
2022/11/10 01:27:18;;;;;;;;;;;22.10;44.50;;;;;;475020;251;2164;-47
2022/11/10 01:29:19;;;;;;;;;;;22.10;44.50;;;;;;474684;251;1232;-47
2022/11/10 01:31:20;;;;;;;;;;;22.10;44.60;;;;;;475060;251;1142;-46
2022/11/10 01:33:22;;;;;;;;;;;22.10;44.50;;;;;;474609;251;1202;-47
2022/11/10 01:35:23;;;;;;;;;;;22.10;44.50;;;;;;474757;251;1260;-48
2022/11/10 01:37:24;;;;;;;;;;;22.10;44.60;;;;;;474609;251;1270;-47
2022/11/10 01:39:25;;;;;;;;;;;22.10;44.50;;;;;;474620;251;1222;-47
2022/11/10 01:41:27;;;;;;;;;;;22.10;44.60;;;;;;474578;251;1281;-47
2022/11/10 01:43:28;;;;;;;;;;;22.10;44.50;;;;;;474833;251;1238;-48
2022/11/10 01:45:29;;;;;;;;;;;22.10;44.50;;;;;;474670;251;1252;-46
2022/11/10 01:47:31;;;;;;;;;;;22.10;44.50;;;;;;474600;251;2253;-47
2022/11/10 01:49:34;;;;;;;;;;;22.10;44.50;;;;;;475037;251;1504;-47
2022/11/10 01:51:33;;;;;;;;;;;22.10;44.50;;;;;;474468;251;1803;-46
2022/11/10 01:53:35;;;;;;;;;;;22.10;44.50;;;;;;474812;251;1223;-47
2022/11/10 01:55:36;;;;;;;;;;;22.10;44.50;;;;;;474849;251;1239;-47
2022/11/10 01:57:37;;;;;;;;;;;22.10;44.50;;;;;;474689;251;1446;-46
2022/11/10 01:59:39;;;;;;;;;;;22.10;44.60;;;;;;474927;251;1234;-46
2022/11/10 02:01:40;;;;;;;;;;;22.10;44.60;;;;;;474637;251;1232;-48
2022/11/10 02:03:42;;;;;;;;;;;22.10;44.50;;;;;;474746;251;1254;-47
2022/11/10 02:05:43;;;;;;;;;;;22.10;44.60;;;;;;475039;251;1279;-48
2022/11/10 02:07:44;;;;;;;;;;;22.10;44.60;;;;;;474604;251;2188;-47
2022/11/10 02:09:46;;;;;;;;;;;22.10;44.60;;;;;;474596;251;1296;-47
2022/11/10 02:11:47;;;;;;;;;;;22.10;44.60;;;;;;474635;251;1216;-47
2022/11/10 02:13:48;;;;;;;;;;;22.10;44.60;;;;;;474706;251;1287;-47
2022/11/10 02:15:50;;;;;;;;;;;22.10;44.60;;;;;;474889;251;1409;-46
2022/11/10 02:17:51;;;;;;;;;;;22.10;44.60;;;;;;474581;251;1342;-47
2022/11/10 02:19:52;;;;;;;;;;;22.10;44.60;;;;;;474868;251;1224;-47
2022/11/10 02:21:54;;;;;;;;;;;22.10;44.60;;;;;;474701;251;1301;-47
2022/11/10 02:23:55;;;;;;;;;;;22.10;44.50;;;;;;474952;251;1237;-46
2022/11/10 02:25:56;;;;;;;;;;;22.10;44.50;;;;;;474710;251;1380;-47
2022/11/10 02:27:58;;;;;;;;;;;22.10;44.50;;;;;;474553;251;2189;-47
2022/11/10 02:29:59;;;;;;;;;;;22.10;44.50;;;;;;474864;251;1256;-48
2022/11/10 02:32:00;;;;;;;;;;;22.10;44.50;;;;;;475033;251;1212;-47
2022/11/10 02:34:02;;;;;;;;;;;22.10;44.50;;;;;;474561;251;1312;-48
2022/11/10 02:36:03;;;;;;;;;;;22.10;44.50;;;;;;474593;251;1301;-48
2022/11/10 02:38:04;;;;;;;;;;;22.10;44.60;;;;;;474696;251;1478;-47
2022/11/10 02:40:06;;;;;;;;;;;22.10;44.60;;;;;;474556;251;1201;-46
2022/11/10 02:42:09;;;;;;;;;;;22.10;44.50;;;;;;474783;251;1475;-46
2022/11/10 02:44:09;;;;;;;;;;;22.10;44.50;;;;;;474651;251;1974;-47
2022/11/10 02:46:10;;;;;;;;;;;22.10;44.60;;;;;;474542;251;1227;-47
2022/11/10 02:48:12;;;;;;;;;;;22.10;44.60;;;;;;474990;251;2217;-47
2022/11/10 02:50:13;;;;;;;;;;;22.10;44.70;;;;;;474649;251;1258;-47
2022/11/10 02:52:14;;;;;;;;;;;22.10;44.60;;;;;;474895;251;1655;-47
2022/11/10 02:54:16;;;;;;;;;;;22.10;44.60;;;;;;474571;251;1300;-47
2022/11/10 02:56:17;;;;;;;;;;;22.10;44.70;;;;;;474578;251;1247;-46
2022/11/10 02:58:18;;;;;;;;;;;22.10;44.60;;;;;;474495;251;1282;-47
2022/11/10 03:00:20;;;;;;;;;;;22.10;44.60;;;;;;474795;251;1931;-47
2022/11/10 03:02:21;;;;;;;;;;;22.10;44.60;;;;;;474535;251;1278;-47
2022/11/10 03:04:22;;;;;;;;;;;22.10;44.60;;;;;;474648;251;1355;-47
2022/11/10 03:06:24;;;;;;;;;;;22.10;44.60;;;;;;474959;251;1388;-47
2022/11/10 03:08:25;;;;;;;;;;;22.10;44.60;;;;;;474547;251;2213;-47
2022/11/10 03:10:26;;;;;;;;;;;22.10;44.60;;;;;;475000;251;1358;-47
2022/11/10 03:12:27;;;;;;;;;;;22.10;44.60;;;;;;474584;251;1291;-47
2022/11/10 03:14:29;;;;;;;;;;;22.10;44.60;;;;;;474662;251;1290;-46
2022/11/10 03:16:30;;;;;;;;;;;22.10;44.70;;;;;;474650;251;1278;-47
2022/11/10 03:18:31;;;;;;;;;;;22.10;44.60;;;;;;474547;251;1515;-46
2022/11/10 03:20:33;;;;;;;;;;;22.10;44.70;;;;;;474491;251;1231;-47
2022/11/10 03:22:34;;;;;;;;;;;22.10;44.70;;;;;;474529;251;1324;-47
2022/11/10 03:24:35;;;;;;;;;;;22.10;44.80;;;;;;474516;251;1252;-47
2022/11/10 03:26:37;;;;;;;;;;;22.10;44.70;;;;;;474575;251;1462;-47
2022/11/10 03:28:38;;;;;;;;;;;22.10;44.70;;;;;;474509;251;2153;-47
2022/11/10 03:30:39;;;;;;;;;;;22.10;44.70;;;;;;474539;251;1235;-46
2022/11/10 03:32:41;;;;;;;;;;;22.10;44.60;;;;;;474538;251;1210;-47
2022/11/10 03:34:42;;;;;;;;;;;22.10;44.60;;;;;;474666;251;1261;-46
2022/11/10 03:36:43;;;;;;;;;;;22.10;44.60;;;;;;474466;251;1220;-48
2022/11/10 03:38:45;;;;;;;;;;;22.10;44.60;;;;;;474567;251;1363;-47
2022/11/10 03:40:46;;;;;;;;;;;22.10;44.70;;;;;;474955;251;1365;-48
2022/11/10 03:42:47;;;;;;;;;;;22.10;44.60;;;;;;474726;251;1697;-46
2022/11/10 03:44:49;;;;;;;;;;;22.10;44.70;;;;;;474621;251;1245;-46
2022/11/10 03:46:50;;;;;;;;;;;22.10;44.70;;;;;;474571;251;1400;-48
2022/11/10 03:48:51;;;;;;;;;;;22.10;44.60;;;;;;474558;251;2165;-47
2022/11/10 03:50:53;;;;;;;;;;;22.10;44.70;;;;;;474526;251;1246;-48
2022/11/10 03:52:54;;;;;;;;;;;22.10;44.70;;;;;;475021;251;1308;-47
2022/11/10 03:54:55;;;;;;;;;;;22.10;44.60;;;;;;474593;251;1185;-47
2022/11/10 03:56:57;;;;;;;;;;;22.20;44.60;;;;;;475013;251;1202;-47
2022/11/10 03:58:58;;;;;;;;;;;22.10;44.50;;;;;;474592;251;1285;-47
2022/11/10 04:00:59;;;;;;;;;;;22.10;44.60;;;;;;474859;251;1211;-46
2022/11/10 04:03:01;;;;;;;;;;;22.10;44.70;;;;;;474922;251;1198;-47
2022/11/10 04:09:40;;;;;;;;;;;22.00;44.80;;;;;;474666;251;1395;-47
2022/11/10 04:16:20;;;;;;;;;;;22.00;44.80;;;;;;474709;251;1286;-47
2022/11/10 04:18:23;;;;;;;;;;;22.00;44.80;;;;;;474584;251;1349;-47
2022/11/10 04:20:23;;;;;;;;;;;22.00;44.90;;;;;;474626;251;2016;-47
2022/11/10 04:24:45;;;;;;;;;;;22.00;44.90;;;;;;474955;251;1708;-47
2022/11/10 04:26:47;;;;;;;;;;;22.00;45.00;;;;;;474541;251;1329;-46
2022/11/10 04:28:48;;;;;;;;;;;22.00;45.00;;;;;;474638;251;2205;-46
2022/11/10 04:30:49;;;;;;;;;;;22.00;45.00;;;;;;474558;251;2034;-47
2022/11/10 04:32:51;;;;;;;;;;;22.00;45.00;;;;;;474536;251;1322;-47
2022/11/10 04:34:52;;;;;;;;;;;22.00;44.90;;;;;;474862;251;1304;-46
2022/11/10 04:36:53;;;;;;;;;;;22.00;45.00;;;;;;474499;251;1369;-46
2022/11/10 04:38:55;;;;;;;;;;;22.00;44.90;;;;;;474542;251;1467;-47
2022/11/10 04:40:56;;;;;;;;;;;22.00;45.00;;;;;;474570;251;1294;-46
2022/11/10 04:42:57;;;;;;;;;;;22.00;44.90;;;;;;474567;251;1320;-48
2022/11/10 04:44:59;;;;;;;;;;;22.00;44.90;;;;;;474586;251;1674;-47
2022/11/10 04:47:00;;;;;;;;;;;22.00;45.00;;;;;;474561;251;1419;-48
2022/11/10 04:49:01;;;;;;;;;;;22.00;45.00;;;;;;474496;251;2225;-46
2022/11/10 04:51:03;;;;;;;;;;;22.00;45.00;;;;;;474525;251;1307;-47
2022/11/10 04:53:04;;;;;;;;;;;22.00;45.00;;;;;;474607;251;1175;-47
2022/11/10 04:55:05;;;;;;;;;;;22.00;45.10;;;;;;475031;251;1255;-47
2022/11/10 04:57:07;;;;;;;;;;;22.00;45.00;;;;;;474673;251;1743;-47
2022/11/10 04:59:08;;;;;;;;;;;22.00;44.90;;;;;;474563;251;1222;-47
2022/11/10 05:01:09;;;;;;;;;;;22.00;44.90;;;;;;474973;251;1228;-47
2022/11/10 05:03:11;;;;;;;;;;;22.00;45.00;;;;;;474909;251;1270;-47
2022/11/10 05:05:12;;;;;;;;;;;22.00;45.00;;;;;;474607;251;1368;-47
2022/11/10 05:07:13;;;;;;;;;;;22.00;45.00;;;;;;474722;251;1187;-48
2022/11/10 05:09:15;;;;;;;;;;;22.00;44.90;;;;;;474835;251;2188;-46
2022/11/10 05:11:16;;;;;;;;;;;22.00;44.90;;;;;;474595;251;1265;-47
2022/11/10 05:13:17;;;;;;;;;;;22.00;44.90;;;;;;474477;251;1303;-47
2022/11/10 05:15:19;;;;;;;;;;;22.00;44.90;;;;;;474579;251;1243;-47
2022/11/10 05:17:20;;;;;;;;;;;22.00;44.90;;;;;;474740;251;1187;-46
2022/11/10 05:19:21;;;;;;;;;;;22.00;44.80;;;;;;474997;251;1293;-48
2022/11/10 05:21:23;;;;;;;;;;;22.00;44.90;;;;;;474676;251;1182;-47
2022/11/10 05:23:40;;;;;;;;;;;22.00;44.90;;;;;;474675;251;1197;-46
2022/11/10 05:25:41;;;;;;;;;;;22.00;44.80;;;;;;474530;251;1992;-47
2022/11/10 05:27:42;;;;;;;;;;;22.00;44.80;;;;;;474567;251;1269;-47
2022/11/10 05:29:43;;;;;;;;;;;22.10;44.90;;;;;;474647;251;2110;-46
2022/11/10 05:31:45;;;;;;;;;;;22.10;44.90;;;;;;475094;251;1235;-48
2022/11/10 05:33:46;;;;;;;;;;;22.10;44.80;;;;;;474535;251;1212;-46
2022/11/10 05:35:47;;;;;;;;;;;22.10;44.80;;;;;;474566;251;1224;-48
2022/11/10 05:37:49;;;;;;;;;;;22.10;44.80;;;;;;474582;251;1236;-47
2022/11/10 05:39:50;;;;;;;;;;;22.10;44.90;;;;;;474594;251;1375;-47
2022/11/10 05:41:51;;;;;;;;;;;22.10;44.80;;;;;;475039;251;1260;-47
2022/11/10 05:43:53;;;;;;;;;;;22.10;44.80;;;;;;474838;251;1218;-46
2022/11/10 05:45:54;;;;;;;;;;;22.10;44.80;;;;;;474741;251;1274;-47
2022/11/10 05:47:55;;;;;;;;;;;22.10;44.80;;;;;;474550;251;2201;-47
2022/11/10 05:49:57;;;;;;;;;;;22.10;44.70;;;;;;474843;251;1585;-46
2022/11/10 05:51:58;;;;;;;;;;;22.10;44.70;;;;;;474466;251;1269;-48
2022/11/10 05:53:59;;;;;;;;;;;22.10;44.90;;;;;;474548;251;1228;-47
2022/11/10 05:56:01;;;;;;;;;;;22.10;52.40;;;;;;474879;251;1215;-46
2022/11/10 05:58:02;;;;;;;;;;;22.10;62.30;;;;;;474540;251;1244;-47
2022/11/10 06:00:03;;;;;;;;;;;22.10;67.90;;;;;;474640;251;1432;-47
2022/11/10 06:02:05;;;;;;;;;;;22.20;72.60;;;;;;474507;251;1230;-47
2022/11/10 06:04:06;;;;;;;;;;;22.20;76.10;;;;;;474500;251;1170;-47
2022/11/10 06:06:07;;;;;;;;;;;22.20;79.20;;;;;;474465;251;1344;-47
2022/11/10 06:08:09;;;;;;;;;;;22.20;83.50;;;;;;474629;251;2146;-47
2022/11/10 06:10:10;;;;;;;;;;;22.10;84.30;;;;;;474394;251;1437;-46
2022/11/10 06:12:11;;;;;;;;;;;22.10;84.80;;;;;;474634;251;1566;-47
2022/11/10 06:14:14;;;;;;;;;;;;;;;;;;474571;251;1612;-47
2022/11/10 06:16:15;;;;;;;;;;;22.10;45.10;;;;;;474730;251;1173;-47
2022/11/10 06:18:17;;;;;;;;;;;22.20;45.30;;;;;;474616;251;1315;-47
2022/11/10 06:20:18;;;;;;;;;;;22.20;45.50;;;;;;474187;251;1315;-48
2022/11/10 06:22:19;;;;;;;;;;;22.20;45.70;;;;;;474433;251;1254;-47
2022/11/10 06:24:21;;;;;;;;;;;22.20;46.00;;;;;;474449;251;1264;-47
2022/11/10 06:26:22;;;;;;;;;;;22.20;46.20;;;;;;474673;251;1356;-47
2022/11/10 06:28:23;;;;;;;;;;;22.20;46.40;;;;;;474440;251;2182;-47
2022/11/10 06:30:25;;;;;;;;;;;22.20;46.60;;;;;;474474;251;1504;-46
2022/11/10 06:32:26;;;;;;;;;;;22.30;46.60;;;;;;474517;251;1268;-47
2022/11/10 06:34:27;;;;;;;;;;;22.20;46.80;;;;;;474615;251;1244;-47
2022/11/10 06:36:29;;;;;;;;;;;22.30;47.00;;;;;;474518;251;1262;-47
2022/11/10 06:38:30;;;;;;;;;;;22.20;47.20;;;;;;474447;251;1855;-48
2022/11/10 06:40:31;;;;;;;;;;;22.20;47.30;;;;;;474445;251;1345;-48
2022/11/10 06:42:33;;;;;;;;;;;22.20;47.60;;;;;;474328;251;1633;-47
2022/11/10 06:44:34;;;;;;;;;;;22.20;47.80;;;;;;474331;250;1615;-47
2022/11/10 06:46:35;;;;;;;;;;;22.20;47.60;;;;;;474274;251;1218;-48
2022/11/10 06:48:37;;;;;;;;;;;22.10;47.70;;;;;;474496;251;2189;-47
2022/11/10 06:50:38;;;;;;;;;;;22.20;48.00;;;;;;474528;251;1590;-47
2022/11/10 06:52:39;;;;;;;;;;;22.10;48.10;;;;;;474503;251;1547;-47
2022/11/10 06:54:41;;;;;;;;;;;22.20;48.20;;;;;;474429;251;1255;-47
2022/11/10 06:56:42;;;;;;;;;;;22.10;48.10;;;;;;474335;251;1698;-46
2022/11/10 06:58:43;;;;;;;;;;;22.20;48.30;;;;;;474555;251;1329;-47
2022/11/10 07:00:45;;;;;;;;;;;22.20;48.50;;;;;;474590;251;1285;-46
2022/11/10 07:02:46;;;;;;;;;;;22.10;48.40;;;;;;474389;251;1860;-47
2022/11/10 07:04:49;;;;;;;;;;;22.10;48.60;;;;;;474540;251;1319;-47
2022/11/10 07:06:49;;;;;;;;;;;22.10;49.00;;;;;;474228;251;1888;-47
2022/11/10 07:08:50;;;;;;;;;;;22.10;49.10;;;;;;474579;251;2149;-47
2022/11/10 07:10:52;;;;;;;;;;;22.10;49.30;;;;;;474473;251;1642;-46
2022/11/10 07:12:53;;;;;;;;;;;22.10;49.30;;;;;;474440;251;1261;-46
2022/11/10 07:14:54;;;;;;;;;;;22.20;49.60;;;;;;474481;251;1320;-47
2022/11/10 07:16:56;;;;;;;;;;;22.10;49.50;;;;;;474666;251;1259;-47
2022/11/10 07:18:57;;;;;;;;;;;22.10;49.60;;;;;;474808;251;1267;-47
2022/11/10 07:20:58;;;;;;;;;;;22.10;50.20;;;;;;474275;251;1289;-47
2022/11/10 07:23:00;;;;;;;;;;;22.10;50.00;;;;;;474810;251;1206;-46
2022/11/10 07:25:01;;;;;;;;;;;22.10;50.00;;;;;;474380;251;1412;-47
2022/11/10 07:27:02;;;;;;;;;;;22.10;50.30;;;;;;474708;251;1124;-46
2022/11/10 07:29:04;;;;;;;;;;;22.20;50.60;;;;;;474090;251;2161;-47
2022/11/10 07:31:05;;;;;;;;;;;22.10;50.60;;;;;;474358;251;1558;-46
2022/11/10 07:33:06;;;;;;;;;;;22.20;50.70;;;;;;474386;251;1217;-47
2022/11/10 07:35:08;;;;;;;;;;;22.10;50.60;;;;;;474688;251;1313;-47
2022/11/10 07:37:09;;;;;;;;;;;22.30;51.40;;;;;;474375;251;1560;-47
2022/11/10 07:39:10;;;;;;;;;;;22.20;51.50;;;;;;474469;251;1255;-47
2022/11/10 07:41:12;;;;;;;;;;;22.30;51.70;;;;;;474184;251;1641;-46
2022/11/10 07:43:13;;;;;;;;;;;22.20;51.10;;;;;;474379;251;1239;-46
2022/11/10 07:45:14;;;;;;;;;;;22.20;50.40;;;;;;474292;251;1289;-46
2022/11/10 07:47:16;;;;;;;;;;;22.30;50.40;;;;;;474158;251;1324;-47
2022/11/10 07:49:17;;;;;;;;;;;22.30;49.90;;;;;;474258;251;2157;-47
2022/11/10 07:51:18;;;;;;;;;;;22.40;50.20;;;;;;474316;251;1280;-46
2022/11/10 07:53:19;;;;;;;;;;;22.30;50.00;;;;;;474103;251;1288;-46
2022/11/10 07:55:21;;;;;;;;;;;22.40;50.70;;;;;;474157;251;1220;-47
2022/11/10 07:57:22;;;;;;;;;;;22.30;51.00;;;;;;474272;251;1234;-47
2022/11/10 07:59:23;;;;;;;;;;;22.40;50.90;;;;;;474404;251;1370;-47
2022/11/10 08:01:25;;;;;;;;;;;22.30;51.40;;;;;;473935;251;1216;-47
2022/11/10 08:03:26;;;;;;;;;;;22.30;51.50;;;;;;473964;251;1189;-46
2022/11/10 08:05:27;;;;;;;;;;;22.40;51.50;;;;;;473759;251;1240;-46
2022/11/10 08:07:29;;;;;;;;;;;22.30;52.10;;;;;;473956;251;1252;-47
2022/11/10 08:09:30;;;;;;;;;;;22.50;52.00;;;;;;474052;251;2177;-47
2022/11/10 08:11:31;;;;;;;;;;;22.50;52.00;;;;;;474184;251;1155;-47
2022/11/10 08:13:33;;;;;;;;;;;22.40;51.80;;;;;;474136;251;1245;-46
2022/11/10 08:15:34;;;;;;;;;;;22.40;52.00;;;;;;474215;251;1296;-46
2022/11/10 08:17:35;;;;;;;;;;;22.40;52.20;;;;;;474172;251;1230;-47
2022/11/10 08:19:37;;;;;;;;;;;22.50;52.30;;;;;;474201;251;1207;-47
2022/11/10 08:21:38;;;;;;;;;;;22.40;52.20;;;;;;474011;251;1287;-47
2022/11/10 08:23:40;;;;;;;;;;;22.40;52.40;;;;;;474082;251;1312;-47
2022/11/10 08:25:41;;;;;;;;;;;22.40;52.60;;;;;;474182;251;1228;-47
2022/11/10 08:27:42;;;;;;;;;;;22.50;53.60;;;;;;474198;251;2079;-47
2022/11/10 08:29:44;;;;;;;;;;;22.40;50.40;;;;;;474151;251;2153;-47
2022/11/10 08:31:45;;;;;;;;;;;22.40;51.40;;;;;;474070;251;1315;-48
2022/11/10 08:33:46;;;;;;;;;;;22.40;51.40;;;;;;474066;251;1345;-46
2022/11/10 08:35:48;;;;;;;;;;;22.50;51.50;;;;;;473915;251;1351;-47
2022/11/10 08:37:49;;;;;;;;;;;22.40;51.80;;;;;;473338;251;1243;-47
2022/11/10 08:39:50;;;;;;;;;;;22.40;52.00;;;;;;473769;251;1277;-47
2022/11/10 08:41:52;;;;;;;;;;;22.50;52.60;;;;;;473688;251;1291;-46
2022/11/10 08:43:53;;;;;;;;;;;22.40;51.70;;;;;;473677;251;1263;-48
2022/11/10 08:45:55;;;;;;;;;;;22.40;51.70;;;;;;473438;251;1355;-47
2022/11/10 08:47:56;;;;;;;;;;;22.40;51.60;;;;;;473643;251;1379;-47
2022/11/10 08:49:57;;;;;;;;;;;22.50;47.90;;;;;;473621;251;2185;-47
2022/11/10 08:51:59;;;;;;;;;;;22.30;48.00;;;;;;473954;251;1238;-46
2022/11/10 08:54:00;;;;;;;;;;;19.00;77.80;;;;;;474034;251;1269;-47
2022/11/10 08:56:03;;;;;;;;;;;22.30;82.70;;;;;;473949;251;1348;-46
2022/11/10 08:58:05;;;;;;;;;;;22.30;84.30;;;;;;473921;251;1375;-48
2022/11/10 09:00:08;;;;;;;;;;;;;;;;;;474203;251;1629;-46
2022/11/10 09:02:09;;;;;;;;;;;22.30;45.70;;;;;;474044;251;1452;-46
2022/11/10 09:04:14;;;;;;;;;;;22.30;45.70;;;;;;474019;251;1336;-48
2022/11/10 09:06:12;;;;;;;;;;;22.30;45.70;;;;;;473819;251;1889;-48
2022/11/10 09:08:13;;;;;;;;;;;22.30;45.70;;;;;;473965;251;1302;-48
2022/11/10 09:10:15;;;;;;;;;;;22.30;45.70;;;;;;473428;251;2157;-48
2022/11/10 09:12:16;;;;;;;;;;;22.30;45.70;;;;;;473390;251;1254;-49
2022/11/10 09:14:17;;;;;;;;;;;22.30;45.70;;;;;;473601;251;1320;-47
2022/11/10 09:16:19;;;;;;;;;;;22.30;45.70;;;;;;473725;251;1364;-47
2022/11/10 09:18:20;;;;;;;;;;;22.30;45.70;;;;;;473831;251;1259;-47
2022/11/10 09:20:21;;;;;;;;;;;22.30;45.70;;;;;;473991;251;1292;-46
2022/11/10 09:22:23;;;;;;;;;;;22.30;45.70;;;;;;473924;251;1376;-46
2022/11/10 09:24:24;;;;;;;;;;;22.30;45.60;;;;;;473957;251;1255;-48
2022/11/10 09:26:25;;;;;;;;;;;22.30;45.60;;;;;;474168;251;1238;-47
2022/11/10 09:28:27;;;;;;;;;;;22.30;45.70;;;;;;474088;251;1273;-46
2022/11/10 09:30:28;;;;;;;;;;;22.30;45.70;;;;;;474036;251;2217;-48
2022/11/10 09:32:31;;;;;;;;;;;22.30;45.70;;;;;;474081;251;1271;-46
2022/11/10 09:34:32;;;;;;;;;;;22.30;45.70;;;;;;474033;251;1257;-47
2022/11/10 09:36:33;;;;;;;;;;;22.30;45.80;;;;;;474084;251;1805;-47
2022/11/10 09:38:34;;;;;;;;;;;22.30;45.70;;;;;;474203;251;1306;-47
2022/11/10 09:40:36;;;;;;;;;;;22.30;45.70;;;;;;474190;251;1328;-47
2022/11/10 09:42:37;;;;;;;;;;;22.30;45.70;;;;;;474189;251;1643;-47
2022/11/10 09:44:38;;;;;;;;;;;22.30;45.70;;;;;;473946;251;1326;-46
2022/11/10 09:46:39;;;;;;;;;;;22.30;82.80;;;;;;474057;251;1684;-46
2022/11/10 09:48:41;;;;;;;;;;;22.30;83.50;;;;;;474427;251;1174;-47
2022/11/10 09:50:42;;;;;;;;;;;22.40;81.90;;;;;;474166;251;2158;-46
2022/11/10 09:52:43;;;;;;;;;;;22.30;81.40;;;;;;474260;251;1639;-46
2022/11/10 09:54:45;;;;;;;;;;;22.40;81.30;;;;;;474082;251;1205;-47
2022/11/10 09:56:46;;;;;;;;;;;22.40;81.60;;;;;;474233;251;1209;-47
2022/11/10 09:58:47;;;;;;;;;;;22.40;79.40;;;;;;474147;251;1678;-48
2022/11/10 10:00:49;;;;;;;;;;;22.40;79.90;;;;;;474011;251;1286;-48
2022/11/10 10:02:50;;;;;;;;;;;22.30;79.80;;;;;;473942;251;1363;-47
2022/11/10 10:04:51;;;;;;;;;;;22.40;80.20;;;;;;473838;251;1257;-47
2022/11/10 10:06:54;;;;;;;;;;;22.30;79.50;;;;;;473976;251;1262;-46
2022/11/10 10:08:55;;;;;;;;;;;22.30;78.50;;;;;;474032;251;1281;-47
2022/11/10 10:10:56;;;;;;;;;;;22.40;76.90;;;;;;473937;251;2150;-46
2022/11/10 10:12:58;;;;;;;;;;;22.30;78.30;;;;;;474100;251;1377;-47
2022/11/10 10:14:59;;;;;;;;;;;22.30;77.80;;;;;;474083;251;1323;-47
2022/11/10 10:17:00;;;;;;;;;;;22.40;78.30;;;;;;473961;251;1326;-47
2022/11/10 10:19:02;;;;;;;;;;;22.30;77.90;;;;;;474149;251;1284;-47
2022/11/10 10:21:03;;;;;;;;;;;22.30;76.80;;;;;;473926;251;1284;-47
2022/11/10 10:23:04;;;;;;;;;;;22.40;76.40;;;;;;474196;251;1248;-47
2022/11/10 10:25:06;;;;;;;;;;;22.30;78.00;;;;;;474203;251;1247;-46
2022/11/10 10:27:07;;;;;;;;;;;22.30;76.00;;;;;;474006;251;1247;-47
2022/11/10 10:29:08;;;;;;;;;;;22.30;76.70;;;;;;474102;251;1333;-46
2022/11/10 10:31:10;;;;;;;;;;;22.30;79.40;;;;;;474355;251;2220;-47
2022/11/10 10:33:11;;;;;;;;;;;22.30;75.20;;;;;;473937;251;1306;-48
2022/11/10 10:35:13;;;;;;;;;;;22.30;77.40;;;;;;474095;251;1358;-47
2022/11/10 10:37:14;;;;;;;;;;;22.20;76.50;;;;;;473942;251;1402;-47
2022/11/10 10:39:15;;;;;;;;;;;22.20;76.30;;;;;;474035;251;1306;-46
2022/11/10 10:41:17;;;;;;;;;;;22.30;60.80;;;;;;474070;251;1192;-48
2022/11/10 10:43:19;;;;;;;;;;;22.10;45.60;;;;;;474225;251;1269;-47
2022/11/10 10:45:20;;;;;;;;;;;22.20;45.60;;;;;;473948;251;1381;-47
2022/11/10 10:47:21;;;;;;;;;;;22.20;45.60;;;;;;473841;251;1269;-47
2022/11/10 10:49:23;;;;;;;;;;;22.20;45.60;;;;;;474100;251;1284;-47
2022/11/10 10:51:24;;;;;;;;;;;22.20;45.60;;;;;;473911;251;2173;-47
2022/11/10 10:53:25;;;;;;;;;;;22.20;45.40;;;;;;474116;251;1266;-47
2022/11/10 10:55:27;;;;;;;;;;;22.30;45.50;;;;;;474188;251;1307;-46
2022/11/10 10:57:28;;;;;;;;;;;22.20;45.50;;;;;;473989;251;1264;-48
2022/11/10 10:59:29;;;;;;;;;;;22.20;45.50;;;;;;473801;251;1330;-48
2022/11/10 11:01:31;;;;;;;;;;;22.20;45.40;;;;;;473884;251;1215;-47
2022/11/10 11:03:32;;;;;;;;;;;22.20;45.40;;;;;;474250;251;1186;-48
2022/11/10 11:05:34;;;;;;;;;;;22.20;45.40;;;;;;474180;251;1317;-47
2022/11/10 11:07:35;;;;;;;;;;;22.20;45.40;;;;;;474164;251;1243;-47
2022/11/10 11:09:36;;;;;;;;;;;22.20;45.40;;;;;;474142;251;1249;-47
2022/11/10 11:11:38;;;;;;;;;;;22.20;45.40;;;;;;474002;251;2173;-47
2022/11/10 11:13:39;;;;;;;;;;;22.20;45.40;;;;;;474088;251;1308;-47
2022/11/10 11:15:41;;;;;;;;;;;22.20;45.40;;;;;;474178;251;1317;-47
2022/11/10 11:17:42;;;;;;;;;;;22.30;45.40;;;;;;474100;251;1266;-47
2022/11/10 11:19:43;;;;;;;;;;;22.30;45.30;;;;;;474027;251;1230;-47
2022/11/10 11:21:45;;;;;;;;;;;22.30;45.30;;;;;;474173;251;1629;-47
2022/11/10 11:23:46;;;;;;;;;;;22.30;45.30;;;;;;474079;251;1253;-47
2022/11/10 11:25:47;;;;;;;;;;;22.30;45.20;;;;;;474089;251;1330;-47
2022/11/10 11:27:49;;;;;;;;;;;22.30;45.20;;;;;;474001;251;1664;-47
2022/11/10 11:29:50;;;;;;;;;;;22.30;45.20;;;;;;474351;251;1186;-47
2022/11/10 11:31:52;;;;;;;;;;;22.30;45.20;;;;;;474189;251;2157;-47
2022/11/10 11:33:53;;;;;;;;;;;22.30;45.20;;;;;;474262;251;1301;-47
2022/11/10 11:36:00;;;;;;;;;;;22.30;44.30;;;;;;502263;234;1162;-48
2022/11/10 11:38:01;;;;;;;;;;;22.30;45.30;;;;;;491078;241;1212;-47
2022/11/10 11:40:03;;;;;;;;;;;22.20;45.20;;;;;;491336;240;1682;-47
2022/11/10 11:42:04;;;;;;;;;;;22.20;45.30;;;;;;491325;240;1194;-47
2022/11/10 11:44:05;;;;;;;;;;;22.20;45.30;;;;;;491142;240;1214;-47
2022/11/10 11:46:07;;;;;;;;;;;22.20;45.40;;;;;;491374;240;1238;-47
2022/11/10 11:48:08;;;;;;;;;;;22.20;45.40;;;;;;491357;240;1240;-48
2022/11/10 11:50:10;;;;;;;;;;;22.20;45.40;;;;;;491524;240;1243;-47
2022/11/10 11:52:11;;;;;;;;;;;22.20;45.40;;;;;;491399;240;1232;-47
2022/11/10 11:54:12;;;;;;;;;;;22.20;45.40;;;;;;491314;240;2220;-47
2022/11/10 11:56:14;;;;;;;;;;;22.20;45.40;;;;;;491482;240;1170;-48
2022/11/10 11:58:15;;;;;;;;;;;22.20;45.40;;;;;;491495;240;1244;-47
2022/11/10 12:00:17;;;;;;;;;;;22.20;45.40;;;;;;491279;241;1194;-48
2022/11/10 12:02:18;;;;;;;;;;;22.20;45.40;;;;;;491185;240;1209;-46
2022/11/10 12:04:19;;;;;;;;;;;22.20;45.30;;;;;;491235;240;1230;-47
2022/11/10 12:06:21;;;;;;;;;;;22.10;45.30;;;;;;491136;240;1375;-48
2022/11/10 12:08:22;;;;;;;;;;;22.20;45.30;;;;;;491129;240;1340;-48
2022/11/10 12:10:23;;;;;;;;;;;22.20;45.30;;;;;;491198;240;1359;-48
2022/11/10 12:12:25;;;;;;;;;;;22.20;45.30;;;;;;491171;240;1350;-48
2022/11/10 12:14:26;;;;;;;;;;;22.20;45.30;;;;;;491087;240;2145;-47